Fort Lauderdale, FL (33308)

2:09 PM EDT on August 04, 2015 (GMT -0400)
HT Birch State Park WeatherSTEM | | Change Station
CLOSE
Current Station
Personal Weather Station
Location: Fort Lauderdale, FL
Elevation: 29 ft
Nearby Weather Stations

Elev 29 ft 26.15 °N, 80.11 °W | Updated 19 minutes ago

Partly Cloudy
Partly Cloudy
90.2 °F
Feels Like 105 °F
N
5.0
Wind Variable Wind from ESE
Gusts 8.0 mph

Today
High -- | Low -- °F
--% Chance of Precip.
Yesterday
High -- | Low -- °F
Precip. -- in
6:47 AM 8:05 PM
Waning Gibbous, 75% visible
Pressure 30.08 in
Visibility 10.0 miles
Clouds Scattered Clouds 3000 ft
Scattered Clouds 7000 ft
Heat Index 105 °F
Dew Point 78 °F
Humidity 68%
Rainfall 0.00 in
Snow Depth Not available.
UV 9.8 out of 12
Pollen 3.00 out of 12
Air Quality Not available.
Flu Activity Not available.
METAR KFXE 041753Z 25004KT 10SM SCT030 SCT070 31/23 A3007 RMK AO2 SLP186 T03060228 10328 20250 50002

More Conditions Fewer Conditions

Pressure 30.08 in
Visibility 10.0 miles
Clouds Scattered Clouds 3000 ft
Scattered Clouds 7000 ft
Heat Index 105 °F
Dew Point 78 °F
Humidity 68%
Rainfall 0.00 in
Snow Depth Not available.
UV 9.8 out of 12
Pollen 3.00 out of 12
Air Quality Not available.
Flu Activity Not available.
METAR KFXE 041753Z 25004KT 10SM SCT030 SCT070 31/23 A3007 RMK AO2 SLP186 T03060228 10328 20250 50002

More Conditions Fewer Conditions

Nowcast | as of 12:30 PM EDT on August 4, 2015

Scattered showers and a few thunderstorms will develop along the east and West Coast sea breezes this afternoon and move slowly to the north at around 5 mph. The strongest storms will produce frequent lightning strikes, brief heavy rainfall and gusty winds to 40 mph. The storms will become more numerous by mid afternoon over the interior areas. A few showers will also move north across the Atlantic waters.

×

10-Day Weather Forecast

×

Almanac

Astronomy

Aug. 04, 2015 Rise Set
Actual Time
Civil Twilight
Nautical Twilight
Astronomical Twilight
Moon
Length of Visible Light
Length of Day
Tomorrow will be .
, % of the Moon is Illuminated

Today's Extremes

State Highs State Lows

Community

WunderPhotos

Upload Photos

1,843,930 photos uploaded!

WunderBlogs® & News

Nearby

Air Quality

  Air Quality AQ Index Pollutant
Not available.

Snow Depth

Station Depth Elevation

Earthquake Activity

City Distance Mag. Time & Date
Minimum magnitude displayed is 2.5.

Coastal Water Temperatures

Place Temperature

Stations

Nearby Weather Stations

Station Location Temp. Windchill Dew Point Humidity Wind Precip. Elev Updated Type